Time;durP1;ratioP1;P1;durP2;ratioP2;P2;SDS_P1;SDS_P2;PMS_P1;PMS_P2;Temp;Humidity;BMP_temperature;BMP_pressure;BME280_temperature;BME280_humidity;BME280_pressure;Samples;Min_cycle;Max_cycle;Signal;HPM_P1;HPM_P2
2022/12/01 05:01:08;;;;;;;2.03;1.52;;;19.10;99.90;;;;;;5672867;23;20234;-75
2022/12/01 05:03:36;;;;;;;2.03;1.48;;;19.20;99.90;;;;;;4975506;28;20211;-76
2022/12/01 05:06:03;;;;;;;2.15;1.58;;;19.20;99.90;;;;;;4974979;28;20706;-75
2022/12/01 05:08:30;;;;;;;3.13;1.50;;;19.30;99.90;;;;;;4974981;28;20203;-75
2022/12/01 05:10:57;;;;;;;2.35;1.40;;;19.30;99.90;;;;;;4974531;28;20594;-75
2022/12/01 05:13:24;;;;;;;3.97;1.50;;;19.30;99.90;;;;;;4974673;28;20199;-75
2022/12/01 05:15:51;;;;;;;2.65;2.05;;;19.30;99.90;;;;;;4975453;28;20214;-76
2022/12/01 05:18:19;;;;;;;2.60;1.50;;;19.30;99.90;;;;;;4974973;28;20325;-75
2022/12/01 05:20:57;;;;;;;2.15;1.48;;;19.30;99.90;;;;;;4974448;28;20724;-75
2022/12/01 05:23:25;;;;;;;4.90;1.83;;;19.30;99.90;;;;;;4974907;28;20246;-75
2022/12/01 05:25:52;;;;;;;1.38;1.38;;;19.20;99.90;;;;;;4974758;28;20214;-75
2022/12/01 05:28:19;;;;;;;1.42;1.30;;;19.20;99.90;;;;;;4974731;28;20214;-75
2022/12/01 05:30:46;;;;;;;2.90;1.40;;;19.20;99.90;;;;;;4974420;28;20277;-74
2022/12/01 05:33:13;;;;;;;5.07;3.75;;;19.20;99.90;;;;;;4976749;28;20203;-74
2022/12/01 05:35:42;;;;;;;7.22;2.80;;;19.20;99.90;;;;;;4978539;28;20226;-73
2022/12/01 05:38:10;;;;;;;8.88;3.22;;;19.20;99.90;;;;;;4981092;28;20584;-74
2022/12/01 05:40:37;;;;;;;17.35;3.78;;;19.20;99.90;;;;;;4983816;28;20222;-75
2022/12/01 05:43:04;;;;;;;8.95;3.05;;;19.20;99.90;;;;;;4984007;28;20276;-74
2022/12/01 05:45:31;;;;;;;11.70;3.88;;;19.20;99.90;;;;;;4984616;28;20206;-74
2022/12/01 05:48:00;;;;;;;10.45;3.33;;;19.20;99.90;;;;;;4984051;28;20203;-75
2022/12/01 05:50:28;;;;;;;16.52;4.28;;;19.20;99.90;;;;;;4978097;28;20717;-70
2022/12/01 05:52:57;;;;;;;18.02;3.85;;;19.30;99.90;;;;;;4978091;28;20667;-70
2022/12/01 05:55:23;;;;;;;24.73;4.32;;;19.30;99.90;;;;;;4978362;28;20202;-69
2022/12/01 05:57:50;;;;;;;16.27;5.65;;;19.20;99.90;;;;;;4978301;28;20211;-69
2022/12/01 06:00:18;;;;;;;21.42;6.95;;;19.20;99.90;;;;;;4978185;28;20226;-75
2022/12/01 06:02:45;;;;;;;29.80;8.23;;;19.10;99.90;;;;;;4977928;28;20222;-73
2022/12/01 06:05:11;;;;;;;23.73;7.30;;;19.10;99.90;;;;;;4978223;28;20246;-72
2022/12/01 06:07:39;;;;;;;22.80;6.63;;;19.00;99.90;;;;;;4978152;28;20206;-72
2022/12/01 11:23:28;;;;;;;19.98;4.32;;;19.00;99.90;;;;;;4995598;23;20234;-80
2022/12/01 11:26:02;;;;;;;11.88;3.47;;;19.00;99.90;;;;;;4980208;28;20215;-80
2022/12/01 11:28:31;;;;;;;15.93;3.40;;;19.00;99.90;;;;;;4980010;28;20187;-80
2022/12/01 11:31:00;;;;;;;11.75;3.90;;;19.00;99.90;;;;;;4979936;28;20267;-80
2022/12/01 11:33:27;;;;;;;15.30;3.40;;;19.00;99.90;;;;;;4960762;29;20667;-79
2022/12/01 11:35:54;;;;;;;17.40;3.95;;;19.00;99.90;;;;;;4964457;29;20207;-80
2022/12/01 11:38:23;;;;;;;15.38;3.65;;;19.00;99.90;;;;;;4971565;28;20204;-79
2022/12/01 11:40:53;;;;;;;18.02;3.63;;;19.00;99.90;;;;;;4970496;29;20210;-79
2022/12/01 11:43:25;;;;;;;14.13;3.30;;;19.00;99.90;;;;;;4971684;29;20227;-80
2022/12/01 11:45:53;;;;;;;12.60;3.15;;;19.00;99.90;;;;;;4972139;29;20263;-79
2022/12/01 11:48:25;;;;;;;17.42;3.63;;;19.00;99.90;;;;;;4971349;29;20200;-79
2022/12/01 11:51:05;;;;;;;17.08;4.10;;;19.10;99.90;;;;;;4968749;29;20220;-79
2022/12/01 11:53:33;;;;;;;7.10;3.15;;;19.10;99.90;;;;;;4970134;29;20211;-80
2022/12/01 11:56:18;;;;;;;21.98;4.63;;;19.10;99.90;;;;;;4970141;29;20211;-80
2022/12/01 11:58:46;;;;;;;15.43;4.82;;;19.20;99.90;;;;;;4967048;29;20187;-79
2022/12/01 12:01:20;;;;;;;18.90;4.47;;;19.20;99.90;;;;;;4962556;29;20207;-80
2022/12/01 12:03:58;;;;;;;22.23;6.35;;;19.30;99.90;;;;;;4963384;29;20188;-78
2022/12/01 12:06:32;;;;;;;81.72;17.42;;;19.30;99.90;;;;;;4959377;29;20558;-79
2022/12/01 12:09:15;;;;;;;127.28;33.92;;;19.40;99.90;;;;;;4959292;29;20188;-80
2022/12/01 12:11:53;;;;;;;106.07;33.80;;;19.40;99.90;;;;;;4959247;29;20222;-79
2022/12/01 12:14:30;;;;;;;101.70;32.15;;;19.40;99.90;;;;;;4959218;29;20240;-79
2022/12/01 12:17:16;;;;;;;108.60;31.38;;;19.40;99.90;;;;;;4958783;29;20191;-78
2022/12/01 12:19:59;;;;;;;108.80;32.50;;;19.40;99.90;;;;;;4957207;29;20204;-77
2022/12/01 12:22:45;;;;;;;100.10;31.15;;;19.40;99.90;;;;;;4957276;29;20238;-76
2022/12/01 12:25:23;;;;;;;118.35;32.25;;;19.50;99.90;;;;;;4956569;29;20207;-76
2022/12/01 12:28:00;;;;;;;92.97;29.90;;;19.50;99.90;;;;;;4957251;29;20191;-76
2022/12/01 12:30:29;;;;;;;81.40;29.00;;;19.50;99.90;;;;;;4956833;29;20187;-76
2022/12/01 12:33:32;;;;;;;94.10;30.67;;;19.50;99.90;;;;;;4956591;29;20220;-75
2022/12/01 12:36:06;;;;;;;78.53;28.58;;;19.60;99.90;;;;;;4956476;29;20194;-76
2022/12/01 12:38:48;;;;;;;86.63;28.52;;;19.50;99.90;;;;;;4956109;29;20199;-76
2022/12/01 12:41:23;;;;;;;77.15;26.17;;;19.50;99.90;;;;;;4956019;29;20204;-76
2022/12/01 12:44:02;;;;;;;78.72;26.75;;;19.50;99.90;;;;;;4956101;29;20183;-76
2022/12/01 12:46:39;;;;;;;67.07;26.00;;;19.50;99.90;;;;;;4956027;29;20198;-77
2022/12/01 12:49:20;;;;;;;69.35;24.08;;;19.40;99.90;;;;;;4956529;28;20194;-77
2022/12/01 12:51:52;;;;;;;76.75;23.00;;;19.50;99.90;;;;;;4956756;29;20248;-78
2022/12/01 12:54:25;;;;;;;64.05;22.80;;;19.50;99.90;;;;;;4956781;29;20203;-77
2022/12/01 12:56:58;;;;;;;61.08;22.10;;;19.50;99.90;;;;;;4958039;29;20191;-77
2022/12/01 12:59:31;;;;;;;63.72;21.02;;;19.50;99.90;;;;;;4960364;29;20187;-80
2022/12/01 13:02:08;;;;;;;57.83;21.35;;;19.50;99.90;;;;;;4959167;29;20233;-78
2022/12/01 13:04:42;;;;;;;58.38;21.40;;;19.50;99.90;;;;;;4957190;29;20192;-79
2022/12/01 13:07:18;;;;;;;56.38;21.27;;;19.40;99.90;;;;;;4957596;29;20194;-79
2022/12/01 13:09:51;;;;;;;59.47;20.30;;;19.40;99.90;;;;;;4956712;29;20187;-78
2022/12/01 13:12:24;;;;;;;66.85;21.40;;;19.40;99.90;;;;;;4956273;29;20216;-78
2022/12/01 13:14:59;;;;;;;59.13;19.33;;;19.40;99.90;;;;;;4956935;29;20639;-78
2022/12/01 13:17:30;;;;;;;64.05;20.27;;;19.40;99.90;;;;;;4961481;29;20199;-79
2022/12/01 13:19:58;;;;;;;49.72;19.92;;;19.40;99.90;;;;;;4962090;29;20199;-82
2022/12/01 13:22:30;;;;;;;51.42;19.80;;;19.40;99.90;;;;;;4961910;29;20238;-78
2022/12/01 13:24:58;;;;;;;50.58;18.77;;;19.40;99.90;;;;;;4961069;29;20215;-80
2022/12/01 13:27:29;;;;;;;45.03;19.08;;;19.40;99.90;;;;;;4957095;29;20207;-77
2022/12/01 13:29:57;;;;;;;49.67;18.45;;;19.40;99.90;;;;;;4956206;29;20191;-77
2022/12/01 13:32:30;;;;;;;54.92;17.90;;;19.40;99.90;;;;;;4955910;29;20216;-77
2022/12/01 13:34:57;;;;;;;59.63;19.55;;;19.40;99.90;;;;;;4955733;29;20187;-77
2022/12/01 13:37:29;;;;;;;56.28;17.83;;;19.40;99.90;;;;;;4955808;29;20211;-77
2022/12/01 13:40:07;;;;;;;58.50;18.73;;;19.40;99.90;;;;;;4955958;29;20192;-78
2022/12/01 13:42:35;;;;;;;66.80;18.98;;;19.30;99.90;;;;;;4956050;29;20698;-78
2022/12/01 13:45:16;;;;;;;51.75;16.27;;;19.40;99.90;;;;;;4956221;29;20290;-77
2022/12/01 13:47:51;;;;;;;56.92;17.23;;;19.30;99.90;;;;;;4955676;29;20195;-77
2022/12/01 13:50:38;;;;;;;52.53;17.50;;;19.30;99.90;;;;;;4955559;29;20187;-77
2022/12/01 13:53:12;;;;;;;60.33;19.25;;;19.30;99.90;;;;;;4955449;29;20251;-77
2022/12/01 13:55:57;;;;;;;57.42;18.27;;;19.30;99.90;;;;;;4955126;29;20599;-77
2022/12/01 13:58:47;;;;;;;49.30;16.75;;;19.30;99.90;;;;;;4955517;29;20192;-77
2022/12/01 14:01:44;;;;;;;42.83;16.05;;;19.30;99.90;;;;;;4951950;28;20215;-77
2022/12/01 14:04:30;;;;;;;48.33;16.10;;;19.30;99.90;;;;;;4959041;29;20199;-77
2022/12/01 14:07:16;;;;;;;40.97;15.90;;;19.30;99.90;;;;;;4958993;29;20192;-76
2022/12/01 14:09:43;;;;;;;44.25;15.55;;;19.20;99.90;;;;;;4948562;29;20203;-76
2022/12/01 14:12:17;;;;;;;49.65;15.15;;;19.30;99.90;;;;;;4958751;29;20308;-76
2022/12/01 14:14:52;;;;;;;43.20;15.98;;;19.30;99.90;;;;;;4958768;29;20200;-76
2022/12/01 14:17:30;;;;;;;43.30;14.02;;;19.30;99.90;;;;;;4958921;29;20195;-77
2022/12/01 14:20:07;;;;;;;42.55;15.40;;;19.30;99.90;;;;;;4958944;29;20210;-77
2022/12/01 14:22:37;;;;;;;40.63;14.75;;;19.20;99.90;;;;;;4958803;29;20235;-77
2022/12/01 14:25:06;;;;;;;49.53;16.08;;;19.20;99.90;;;;;;4958268;29;20211;-77
2022/12/01 14:27:35;;;;;;;48.47;15.32;;;19.30;99.90;;;;;;4960340;29;20207;-78
2022/12/01 14:30:35;;;;;;;37.58;14.07;;;19.20;99.90;;;;;;4963753;29;20207;-79
2022/12/01 15:02:39;;;;;;;42.58;12.30;;;19.10;99.90;;;;;;5987818;23;20331;-76
2022/12/01 15:05:10;;;;;;;42.13;12.80;;;19.10;99.90;;;;;;4977007;28;20219;-73
2022/12/01 15:07:38;;;;;;;34.45;12.10;;;19.10;99.90;;;;;;4978019;28;20234;-73
2022/12/01 15:10:06;;;;;;;37.92;12.50;;;19.10;99.90;;;;;;4976764;28;20253;-73
2022/12/01 15:12:33;;;;;;;50.17;13.40;;;19.10;99.90;;;;;;4976759;28;20230;-73
2022/12/01 15:15:00;;;;;;;44.55;12.00;;;19.10;99.90;;;;;;4976997;28;20202;-73
2022/12/01 15:17:31;;;;;;;38.80;11.40;;;19.10;99.90;;;;;;4976822;28;20203;-73
2022/12/01 15:19:59;;;;;;;45.17;11.82;;;19.10;99.90;;;;;;4976574;28;20703;-73
2022/12/01 15:22:30;;;;;;;36.83;11.52;;;19.10;99.90;;;;;;4976884;28;20590;-74
2022/12/01 15:25:06;;;;;;;33.33;12.77;;;19.10;99.90;;;;;;4976822;28;20194;-74
2022/12/01 15:27:33;;;;;;;35.72;11.55;;;19.10;99.90;;;;;;4976818;28;20191;-73
2022/12/01 15:30:03;;;;;;;34.58;11.38;;;19.10;99.90;;;;;;4976722;28;20206;-73
2022/12/01 15:32:31;;;;;;;49.22;12.10;;;19.10;99.90;;;;;;4976693;28;20242;-73
2022/12/01 15:35:00;;;;;;;38.90;11.82;;;19.10;99.90;;;;;;4976610;28;20235;-74
2022/12/01 15:37:34;;;;;;;36.80;11.63;;;19.10;99.90;;;;;;4976289;28;20717;-73
2022/12/01 15:40:07;;;;;;;39.65;10.80;;;19.10;99.90;;;;;;4976224;28;20638;-73
2022/12/01 15:42:38;;;;;;;48.83;11.80;;;19.10;99.90;;;;;;4976031;28;20659;-73
2022/12/01 15:45:17;;;;;;;42.35;12.40;;;19.10;99.90;;;;;;4976534;28;20550;-74
2022/12/01 15:47:46;;;;;;;41.05;11.55;;;19.10;99.90;;;;;;4976697;28;20183;-73
2022/12/01 15:50:29;;;;;;;39.95;11.05;;;19.10;99.90;;;;;;4976386;28;20207;-74
2022/12/01 15:52:59;;;;;;;35.28;11.23;;;19.20;99.90;;;;;;4976278;28;20301;-74
2022/12/01 15:55:28;;;;;;;41.85;10.88;;;19.20;99.90;;;;;;4976013;28;20207;-73
2022/12/01 15:57:55;;;;;;;36.28;11.52;;;19.10;99.90;;;;;;4976166;28;20199;-73
2022/12/01 16:00:23;;;;;;;30.80;10.20;;;19.10;99.90;;;;;;4976094;28;20206;-73
2022/12/01 16:02:52;;;;;;;41.63;11.63;;;19.10;99.90;;;;;;4975978;28;20226;-73
2022/12/01 16:05:22;;;;;;;27.85;9.90;;;19.10;99.90;;;;;;4975896;28;20690;-74
2022/12/01 16:07:48;;;;;;;30.38;10.43;;;19.10;99.90;;;;;;4976053;28;20281;-74
2022/12/01 16:10:28;;;;;;;48.00;11.25;;;19.10;99.90;;;;;;4975952;28;20211;-74
2022/12/01 16:13:28;;;;;;;43.83;10.45;;;19.10;99.90;;;;;;4975877;28;20218;-74
2022/12/01 16:15:55;;;;;;;28.17;9.60;;;19.10;99.90;;;;;;4975591;28;20207;-74
2022/12/01 16:18:28;;;;;;;25.02;9.63;;;19.10;99.90;;;;;;4975862;28;20293;-74
2022/12/01 16:21:02;;;;;;;29.05;8.82;;;19.00;99.90;;;;;;4975758;28;20183;-74
2022/12/01 16:23:30;;;;;;;30.52;10.60;;;19.10;99.90;;;;;;4975112;28;20222;-74
2022/12/01 16:25:58;;;;;;;32.50;9.93;;;19.10;99.90;;;;;;4975650;28;20207;-74
2022/12/01 16:28:30;;;;;;;33.28;9.35;;;19.10;99.90;;;;;;4975617;28;20199;-74
2022/12/01 16:30:57;;;;;;;34.97;9.20;;;19.20;99.90;;;;;;4975648;28;20198;-74
2022/12/01 16:33:25;;;;;;;22.27;9.00;;;19.20;99.90;;;;;;4975466;28;20219;-73
2022/12/01 16:35:53;;;;;;;29.70;9.30;;;19.20;99.90;;;;;;4975478;28;20202;-73
2022/12/01 16:38:22;;;;;;;32.28;9.07;;;19.20;99.90;;;;;;4975239;28;20207;-74
2022/12/01 16:40:50;;;;;;;29.15;8.75;;;19.20;99.90;;;;;;4975433;28;20203;-74
2022/12/01 16:43:20;;;;;;;20.25;8.60;;;19.20;99.90;;;;;;4975457;28;20301;-74
2022/12/01 16:45:51;;;;;;;23.95;8.55;;;19.20;99.90;;;;;;4976450;28;20199;-74
2022/12/01 16:48:19;;;;;;;26.40;8.32;;;19.20;99.90;;;;;;4975409;28;20187;-74
2022/12/01 16:50:46;;;;;;;22.88;8.38;;;19.10;99.90;;;;;;4975009;28;20662;-74
2022/12/01 16:53:13;;;;;;;24.73;8.60;;;19.10;99.90;;;;;;4975202;28;20225;-74
2022/12/01 16:55:47;;;;;;;29.80;9.40;;;19.10;99.90;;;;;;4975184;28;20207;-74
2022/12/01 16:58:14;;;;;;;27.98;8.48;;;19.10;99.90;;;;;;4975233;28;20187;-74
2022/12/01 17:00:42;;;;;;;23.83;8.48;;;19.10;99.90;;;;;;4974841;28;20701;-74
2022/12/01 17:03:11;;;;;;;23.13;8.25;;;19.10;99.90;;;;;;4974917;28;20233;-74
2022/12/01 17:05:39;;;;;;;34.70;9.27;;;19.10;99.90;;;;;;4974944;28;20217;-72
2022/12/01 17:08:06;;;;;;;25.15;7.68;;;19.10;99.90;;;;;;4974729;28;20678;-73
2022/12/01 17:10:33;;;;;;;25.60;8.60;;;19.10;99.90;;;;;;4974985;28;20202;-73
2022/12/01 17:12:59;;;;;;;23.98;7.32;;;19.00;99.90;;;;;;4974586;28;20702;-73
2022/12/01 17:15:26;;;;;;;22.00;8.52;;;19.00;99.90;;;;;;4974918;28;20207;-73
2022/12/01 17:17:54;;;;;;;32.67;7.97;;;19.00;99.90;;;;;;4975090;28;20198;-73
2022/12/01 17:20:21;;;;;;;30.08;8.70;;;19.00;99.90;;;;;;4974854;28;20213;-73
2022/12/01 17:22:48;;;;;;;28.92;8.93;;;19.10;99.90;;;;;;4974754;28;20589;-73
2022/12/01 17:25:15;;;;;;;25.70;8.30;;;19.00;99.90;;;;;;4975270;28;20202;-73
2022/12/01 17:27:42;;;;;;;22.30;7.20;;;19.10;99.90;;;;;;4974793;28;20610;-72
2022/12/01 17:30:10;;;;;;;20.20;7.90;;;19.10;99.90;;;;;;4974864;28;20199;-73
2022/12/01 17:32:37;;;;;;;25.33;8.35;;;19.10;99.90;;;;;;4974690;28;20227;-72
2022/12/01 17:35:06;;;;;;;16.25;7.15;;;19.10;99.90;;;;;;4974601;28;20203;-72
2022/12/01 17:37:35;;;;;;;18.27;8.18;;;19.20;99.90;;;;;;4978713;28;20207;-75
2022/12/01 17:40:02;;;;;;;21.70;7.20;;;19.20;99.90;;;;;;4978723;28;20203;-75
2022/12/01 17:42:30;;;;;;;15.98;7.82;;;19.20;99.90;;;;;;4978532;28;20226;-75
2022/12/01 17:44:57;;;;;;;17.30;7.90;;;19.20;99.90;;;;;;4978526;28;20218;-75
2022/12/01 17:47:24;;;;;;;19.58;7.47;;;19.20;99.90;;;;;;4978271;28;20670;-73
2022/12/01 17:49:51;;;;;;;18.55;6.82;;;19.20;99.90;;;;;;4978968;28;20214;-76
2022/12/01 17:52:19;;;;;;;16.35;7.15;;;19.20;99.90;;;;;;4979150;28;20230;-75
2022/12/01 17:54:46;;;;;;;21.13;7.57;;;19.20;99.90;;;;;;4979218;28;20214;-75
2022/12/01 17:57:12;;;;;;;20.42;8.00;;;19.20;99.90;;;;;;4979160;28;20210;-75
2022/12/01 17:59:39;;;;;;;20.88;7.53;;;19.20;99.90;;;;;;4978432;28;20666;-76
2022/12/01 18:02:07;;;;;;;22.20;7.82;;;19.20;99.90;;;;;;4979720;28;20223;-72
2022/12/01 18:04:34;;;;;;;24.05;7.68;;;19.20;99.90;;;;;;4980274;28;20702;-75
2022/12/01 18:07:01;;;;;;;27.08;7.90;;;19.20;99.90;;;;;;4981683;28;20209;-76
2022/12/01 18:09:29;;;;;;;31.98;8.35;;;19.20;99.90;;;;;;4980574;28;20210;-73
2022/12/01 18:11:56;;;;;;;19.13;7.35;;;19.20;99.90;;;;;;4979554;28;20238;-73
2022/12/01 18:14:24;;;;;;;16.80;6.97;;;19.20;99.90;;;;;;4979694;28;20242;-73
2022/12/01 18:16:51;;;;;;;16.30;6.47;;;19.20;99.90;;;;;;4979603;28;20213;-72
2022/12/01 18:19:19;;;;;;;15.35;7.68;;;19.20;99.90;;;;;;4979595;28;20203;-71
2022/12/01 18:21:46;;;;;;;32.20;7.95;;;19.10;99.90;;;;;;4979995;28;20210;-75
2022/12/01 18:24:13;;;;;;;21.58;7.13;;;19.10;99.90;;;;;;4979748;28;20218;-76
2022/12/01 18:26:41;;;;;;;27.42;8.18;;;19.10;99.90;;;;;;4979282;28;20566;-79
2022/12/01 18:29:12;;;;;;;23.73;7.80;;;19.10;99.90;;;;;;4980568;28;20234;-76
2022/12/01 18:31:40;;;;;;;24.27;6.78;;;19.10;99.90;;;;;;4979635;28;20535;-80
2022/12/01 18:34:07;;;;;;;16.17;6.80;;;19.20;99.90;;;;;;4978908;28;20195;-78
2022/12/01 18:36:37;;;;;;;19.58;7.47;;;19.20;99.90;;;;;;4978709;28;20202;-74
2022/12/01 18:39:06;;;;;;;25.58;8.25;;;19.20;99.90;;;;;;4978191;28;20658;-74
2022/12/01 18:41:32;;;;;;;24.45;7.18;;;19.20;99.90;;;;;;4978525;28;20203;-74
2022/12/01 18:44:00;;;;;;;23.20;6.85;;;19.30;99.90;;;;;;4978549;28;20219;-74
2022/12/01 18:46:27;;;;;;;24.70;7.22;;;19.30;99.90;;;;;;4978090;28;20206;-74
2022/12/01 18:48:59;;;;;;;20.25;7.00;;;19.40;99.90;;;;;;4978011;28;20635;-74
2022/12/01 18:51:26;;;;;;;14.70;6.63;;;19.40;99.90;;;;;;4977697;28;20282;-74
2022/12/01 18:53:54;;;;;;;21.88;7.30;;;19.40;99.90;;;;;;4977697;28;20222;-75
2022/12/01 18:56:21;;;;;;;24.02;6.30;;;19.40;99.90;;;;;;4977481;28;20203;-74
2022/12/01 18:58:48;;;;;;;17.13;6.50;;;19.30;99.90;;;;;;4977511;28;20229;-74
2022/12/01 19:01:21;;;;;;;21.55;6.15;;;19.30;99.90;;;;;;4977453;28;20662;-74
2022/12/01 19:03:48;;;;;;;21.60;7.13;;;19.20;99.90;;;;;;4976942;28;20686;-74
2022/12/01 19:06:15;;;;;;;20.15;6.50;;;19.20;99.90;;;;;;4976843;28;20217;-74
2022/12/01 19:08:42;;;;;;;21.77;6.80;;;19.20;99.90;;;;;;4976823;28;20664;-74
2022/12/01 19:11:09;;;;;;;14.07;5.80;;;19.20;99.90;;;;;;4976760;28;20199;-73
2022/12/01 19:13:36;;;;;;;14.57;6.00;;;19.20;99.90;;;;;;4977117;28;20219;-74
2022/12/01 19:16:06;;;;;;;15.35;6.10;;;19.10;99.90;;;;;;4977019;28;20207;-74
2022/12/01 19:18:35;;;;;;;12.77;5.55;;;19.10;99.90;;;;;;4977013;28;20194;-73
2022/12/01 19:21:02;;;;;;;10.63;6.00;;;19.10;99.90;;;;;;4977039;28;20222;-74
2022/12/01 19:23:28;;;;;;;11.95;6.10;;;19.10;99.90;;;;;;4976457;28;20678;-73
2022/12/01 19:25:55;;;;;;;15.35;6.68;;;19.10;99.90;;;;;;4976790;28;20203;-74
2022/12/01 19:28:22;;;;;;;20.42;6.25;;;19.10;99.90;;;;;;4976716;28;20202;-74
2022/12/01 19:30:49;;;;;;;11.93;5.55;;;19.10;99.90;;;;;;4976693;28;20203;-75
2022/12/01 19:33:16;;;;;;;10.07;5.70;;;19.10;99.90;;;;;;4976499;28;20223;-74
2022/12/01 19:35:44;;;;;;;13.00;5.68;;;19.10;99.90;;;;;;4976614;28;20210;-75
2022/12/01 19:38:11;;;;;;;12.70;6.25;;;19.10;99.90;;;;;;4976563;28;20306;-75
2022/12/01 19:40:38;;;;;;;13.75;5.53;;;19.10;99.90;;;;;;4976564;28;20207;-73
2022/12/01 19:43:05;;;;;;;15.98;6.03;;;19.10;99.90;;;;;;4976087;28;20589;-74
2022/12/01 19:45:32;;;;;;;14.77;5.20;;;19.10;99.90;;;;;;4976323;28;20229;-74
2022/12/01 19:47:59;;;;;;;13.05;5.78;;;19.10;99.90;;;;;;4976347;28;20203;-73
2022/12/01 19:50:26;;;;;;;11.63;5.38;;;19.10;99.90;;;;;;4976332;28;20203;-75
2022/12/01 19:52:54;;;;;;;9.13;5.05;;;19.10;99.90;;;;;;4976153;28;20222;-73
2022/12/01 19:55:20;;;;;;;18.60;5.90;;;19.10;99.90;;;;;;4976239;28;20199;-73
2022/12/01 19:57:50;;;;;;;12.18;5.75;;;19.10;99.90;;;;;;4975213;28;20206;-73
2022/12/01 20:00:20;;;;;;;11.07;5.43;;;19.10;99.90;;;;;;4976066;28;20716;-73
2022/12/01 20:02:47;;;;;;;13.73;4.95;;;19.00;99.90;;;;;;4975684;28;20704;-73
2022/12/01 20:05:14;;;;;;;13.63;5.80;;;19.00;99.90;;;;;;4975751;28;20234;-73
2022/12/01 20:07:41;;;;;;;11.23;5.03;;;19.00;99.90;;;;;;4975941;28;20263;-73
2022/12/01 20:10:10;;;;;;;10.13;5.65;;;19.00;99.90;;;;;;4975657;28;20566;-74
2022/12/01 20:12:37;;;;;;;15.73;5.50;;;19.00;99.90;;;;;;4975822;28;20233;-75
2022/12/01 20:15:07;;;;;;;14.25;5.80;;;19.00;99.90;;;;;;4975835;28;20179;-74
2022/12/01 20:17:35;;;;;;;8.48;5.32;;;19.00;99.90;;;;;;4976390;28;20230;-73
2022/12/01 20:20:02;;;;;;;13.35;5.18;;;19.00;99.90;;;;;;4975716;28;20250;-74
2022/12/01 20:22:31;;;;;;;11.55;5.05;;;19.00;99.90;;;;;;4975710;28;20227;-74
2022/12/01 20:24:58;;;;;;;13.02;5.60;;;19.00;99.90;;;;;;4975324;28;20637;-74
2022/12/01 20:27:26;;;;;;;15.23;5.68;;;19.00;99.90;;;;;;4975274;28;20570;-74
2022/12/01 20:29:53;;;;;;;11.50;5.10;;;19.00;99.90;;;;;;4975591;28;20238;-74
2022/12/01 20:32:21;;;;;;;11.27;5.15;;;19.10;99.90;;;;;;4975510;28;20222;-75
2022/12/01 20:34:48;;;;;;;12.10;5.28;;;19.10;99.90;;;;;;4975483;28;20570;-73
2022/12/01 20:37:15;;;;;;;10.25;5.40;;;19.10;99.90;;;;;;4975444;28;20213;-73
2022/12/01 20:39:42;;;;;;;9.15;5.10;;;19.10;99.90;;;;;;4975450;28;20207;-73
2022/12/01 20:42:10;;;;;;;13.30;4.95;;;19.10;99.90;;;;;;4975335;28;20219;-72
2022/12/01 20:44:38;;;;;;;8.73;5.05;;;19.10;99.90;;;;;;4975349;28;20223;-72
2022/12/01 20:47:05;;;;;;;11.43;4.90;;;19.10;99.90;;;;;;4975346;28;20245;-72
2022/12/01 20:49:32;;;;;;;11.93;5.13;;;19.00;99.90;;;;;;4975298;28;20293;-72
2022/12/01 20:51:59;;;;;;;11.50;5.20;;;19.00;99.90;;;;;;4975200;28;20226;-72
2022/12/01 20:54:25;;;;;;;9.25;4.60;;;19.00;99.90;;;;;;4975254;28;20207;-72
2022/12/01 20:56:52;;;;;;;6.60;4.00;;;18.90;99.90;;;;;;4975084;28;20218;-74
2022/12/01 20:59:19;;;;;;;7.70;4.57;;;18.90;99.90;;;;;;4975148;28;20209;-72
2022/12/01 21:01:47;;;;;;;10.20;5.00;;;18.90;99.90;;;;;;4974802;28;20210;-73
2022/12/01 21:04:14;;;;;;;7.63;4.88;;;18.90;99.90;;;;;;4974501;28;20219;-72
2022/12/01 21:06:41;;;;;;;9.15;4.22;;;18.90;99.90;;;;;;4974698;28;20582;-72
2022/12/01 21:09:08;;;;;;;13.98;4.80;;;18.90;99.90;;;;;;4974774;28;20206;-72
2022/12/01 21:14:35;;;;;;;10.05;4.50;;;18.90;99.90;;;;;;4975085;28;20194;-72
2022/12/01 21:17:13;;;;;;;10.73;4.75;;;18.90;99.90;;;;;;4974633;28;20190;-72
2022/12/01 21:19:47;;;;;;;10.10;4.95;;;18.90;99.90;;;;;;4974652;28;20641;-75
2022/12/01 21:22:14;;;;;;;15.70;4.88;;;18.90;99.90;;;;;;4982863;23;20231;-73
2022/12/01 21:24:41;;;;;;;17.17;5.18;;;18.90;99.90;;;;;;4975376;28;20248;-74
2022/12/01 21:27:14;;;;;;;6.53;4.55;;;18.90;99.90;;;;;;4974970;28;20242;-72
2022/12/01 21:29:44;;;;;;;10.70;4.45;;;18.90;99.90;;;;;;4975406;28;20187;-73
2022/12/01 21:32:15;;;;;;;6.15;4.38;;;18.90;99.90;;;;;;4975679;28;20222;-75
2022/12/01 21:34:43;;;;;;;7.32;4.35;;;18.90;99.90;;;;;;4975303;28;20701;-73
2022/12/01 21:37:16;;;;;;;8.95;3.85;;;18.90;99.90;;;;;;4976554;28;20230;-74
2022/12/01 21:39:42;;;;;;;13.88;4.88;;;18.90;99.90;;;;;;4975142;28;20198;-73
2022/12/01 21:42:16;;;;;;;7.28;4.40;;;18.90;99.90;;;;;;4975551;28;20223;-72
2022/12/01 21:44:43;;;;;;;5.65;4.05;;;18.90;99.90;;;;;;4974925;28;20210;-74
2022/12/01 21:47:17;;;;;;;10.07;4.40;;;18.90;99.90;;;;;;4975166;28;20198;-76
2022/12/01 21:49:45;;;;;;;10.13;5.22;;;18.90;99.90;;;;;;4975687;28;20187;-77
2022/12/01 21:52:16;;;;;;;15.40;4.82;;;18.90;99.90;;;;;;4977109;28;20278;-75
2022/12/01 21:54:43;;;;;;;11.60;4.22;;;18.80;99.90;;;;;;4974742;28;20205;-74
2022/12/01 21:57:29;;;;;;;9.38;4.57;;;18.90;99.90;;;;;;4974386;28;20203;-75
2022/12/01 21:59:58;;;;;;;6.38;3.95;;;18.80;99.90;;;;;;4975073;28;20550;-76
2022/12/01 22:02:37;;;;;;;8.18;4.20;;;18.80;99.90;;;;;;4974201;28;20230;-74
2022/12/01 22:05:23;;;;;;;12.80;3.80;;;18.80;99.90;;;;;;4974535;28;20211;-75
2022/12/01 22:07:50;;;;;;;8.13;4.00;;;18.80;99.90;;;;;;4974496;28;20187;-75
2022/12/01 22:10:51;;;;;;;9.27;4.18;;;18.80;99.90;;;;;;4974553;28;20207;-75
2022/12/01 22:13:19;;;;;;;7.65;4.30;;;18.80;99.90;;;;;;4974427;28;20202;-75
2022/12/01 22:15:46;;;;;;;12.63;4.45;;;18.90;99.90;;;;;;4974370;28;20210;-75
2022/12/01 22:18:20;;;;;;;10.95;4.40;;;18.90;99.90;;;;;;4974356;28;20234;-75
2022/12/01 22:20:46;;;;;;;10.05;4.22;;;18.90;99.90;;;;;;4974194;28;20187;-75
2022/12/01 22:23:13;;;;;;;5.80;4.03;;;18.80;99.90;;;;;;4977453;28;20643;-75
2022/12/01 22:25:41;;;;;;;11.15;4.00;;;18.80;99.90;;;;;;4977832;28;20234;-75
2022/12/01 22:28:13;;;;;;;7.00;4.40;;;18.80;99.90;;;;;;4977586;28;20215;-75
2022/12/01 22:30:40;;;;;;;9.73;4.25;;;18.80;99.90;;;;;;4978364;28;20191;-75
2022/12/01 22:33:18;;;;;;;10.30;4.15;;;18.80;99.90;;;;;;4977896;28;20229;-75
2022/12/01 22:35:47;;;;;;;5.68;3.60;;;18.80;99.90;;;;;;4977991;28;20184;-75
2022/12/01 22:38:34;;;;;;;9.07;4.20;;;18.80;99.90;;;;;;4977572;28;20658;-75
2022/12/01 22:41:04;;;;;;;9.18;3.67;;;18.80;99.90;;;;;;4977633;28;20227;-74
2022/12/01 22:43:45;;;;;;;7.28;3.72;;;18.80;99.90;;;;;;4977681;28;20546;-74
2022/12/01 22:46:38;;;;;;;8.95;4.57;;;18.80;99.90;;;;;;4977229;28;20203;-74
2022/12/01 22:49:18;;;;;;;6.57;4.18;;;18.80;99.90;;;;;;4959544;28;20577;-74
2022/12/01 22:51:48;;;;;;;4.82;3.58;;;18.80;99.90;;;;;;4978011;28;20227;-74
2022/12/01 22:54:33;;;;;;;5.53;3.83;;;18.80;99.90;;;;;;4977459;28;20542;-74
2022/12/01 22:57:12;;;;;;;11.57;4.22;;;18.80;99.90;;;;;;4977405;28;20183;-74
2022/12/01 22:59:42;;;;;;;4.72;3.47;;;18.80;99.90;;;;;;4977085;28;20195;-73
2022/12/01 23:02:15;;;;;;;7.60;3.90;;;18.80;99.90;;;;;;4977270;28;20227;-73
2022/12/01 23:04:44;;;;;;;8.15;3.95;;;18.80;99.90;;;;;;4977177;28;20234;-72
